Time;durP1;ratioP1;P1;durP2;ratioP2;P2;SDS_P1;SDS_P2;PMS_P1;PMS_P2;Temp;Humidity;BMP_temperature;BMP_pressure;BME280_temperature;BME280_humidity;BME280_pressure;Samples;Min_cycle;Max_cycle;Signal;HPM_P1;HPM_P2
2023/12/02 00:01:40;;;;;;;41.30;20.38;;;;;;;-5.55;100.00;100341.66;7399208;19;20473;-67
2023/12/02 00:04:08;;;;;;;38.72;20.90;;;;;;;-5.55;100.00;100331.44;7398036;19;20018;-67
2023/12/02 00:06:39;;;;;;;38.88;20.23;;;;;;;-5.51;100.00;100333.31;7400635;19;20122;-67
2023/12/02 00:09:08;;;;;;;40.72;19.63;;;;;;;-5.50;100.00;100334.19;7400601;19;20015;-66
2023/12/02 00:11:36;;;;;;;35.58;19.17;;;;;;;-5.50;100.00;100329.94;7400318;19;20085;-68
2023/12/02 00:14:05;;;;;;;38.13;20.42;;;;;;;-5.48;100.00;100327.44;7398168;19;20437;-67
2023/12/02 00:16:33;;;;;;;40.10;18.88;;;;;;;-5.46;100.00;100336.03;7400221;19;20021;-66
2023/12/02 00:19:02;;;;;;;35.47;18.33;;;;;;;-5.50;100.00;100341.84;7400366;19;20010;-67
2023/12/02 00:21:30;;;;;;;42.35;18.75;;;;;;;-5.59;100.00;100333.00;7398843;19;20021;-67
2023/12/02 00:24:02;;;;;;;37.97;17.60;;;;;;;-5.64;100.00;100320.91;7397738;19;20014;-67
2023/12/02 00:26:30;;;;;;;32.03;16.70;;;;;;;-5.65;100.00;100329.38;7399953;19;20066;-67
2023/12/02 00:28:58;;;;;;;39.55;19.55;;;;;;;-5.65;100.00;100324.25;7399467;19;20383;-67
2023/12/02 00:31:27;;;;;;;41.35;20.17;;;;;;;-5.67;100.00;100325.88;7397041;19;20426;-67
2023/12/02 00:33:53;;;;;;;41.60;20.25;;;;;;;-5.67;100.00;100329.31;7398306;19;20018;-67
2023/12/02 00:36:21;;;;;;;45.30;21.05;;;;;;;-5.69;100.00;100330.94;7399198;19;20014;-67
2023/12/02 00:38:50;;;;;;;43.67;21.25;;;;;;;-5.70;100.00;100320.66;7399434;19;20031;-67
2023/12/02 00:41:22;;;;;;;41.33;19.58;;;;;;;-5.68;100.00;100321.59;7398382;19;20477;-67
2023/12/02 00:43:50;;;;;;;45.85;20.88;;;;;;;-5.66;100.00;100327.63;7397175;19;20018;-67
2023/12/02 00:46:19;;;;;;;42.85;18.98;;;;;;;-5.63;100.00;100325.19;7399043;19;20501;-70
2023/12/02 00:48:47;;;;;;;44.30;19.90;;;;;;;-5.62;100.00;100329.50;7399133;19;20034;-69
2023/12/02 00:51:15;;;;;;;40.42;18.58;;;;;;;-5.62;100.00;100329.50;7398976;19;20410;-65
2023/12/02 00:53:44;;;;;;;45.75;21.48;;;;;;;-5.65;100.00;100329.38;7397729;19;20031;-65
2023/12/02 00:56:13;;;;;;;44.58;21.10;;;;;;;-5.66;100.00;100314.84;7398372;19;20374;-65
2023/12/02 00:58:44;;;;;;;36.72;19.48;;;;;;;-5.65;100.00;100307.25;7398682;19;20015;-65
2023/12/02 01:01:13;;;;;;;39.55;21.35;;;;;;;-5.63;100.00;100322.66;7398796;19;20018;-65
2023/12/02 01:03:41;;;;;;;48.15;19.73;;;;;;;-5.67;100.00;100330.97;7397422;19;20018;-65
2023/12/02 01:06:10;;;;;;;43.08;19.55;;;;;;;-5.69;100.00;100332.63;7398121;19;20018;-65
2023/12/02 01:08:39;;;;;;;39.05;20.13;;;;;;;-5.71;100.00;100330.03;7398182;19;20466;-65
2023/12/02 01:11:08;;;;;;;40.45;19.90;;;;;;;-5.70;100.00;100325.78;7398352;19;20015;-67
2023/12/02 01:13:36;;;;;;;43.00;19.83;;;;;;;-5.67;100.00;100328.44;7397216;19;20027;-71
2023/12/02 01:16:14;;;;;;;42.13;19.35;;;;;;;-5.64;100.00;100331.97;7397863;19;20481;-66
2023/12/02 01:18:43;;;;;;;46.40;21.00;;;;;;;-5.62;100.00;100334.63;7395991;19;20509;-66
2023/12/02 01:21:11;;;;;;;40.28;18.77;;;;;;;-5.60;100.00;100333.84;7397869;19;20015;-66
2023/12/02 01:23:40;;;;;;;38.63;18.30;;;;;;;-5.61;100.00;100337.22;7395167;19;20035;-67
2023/12/02 01:26:09;;;;;;;39.38;19.33;;;;;;;-5.61;100.00;100318.44;7397853;19;20419;-66
2023/12/02 01:28:37;;;;;;;42.88;19.67;;;;;;;-5.61;100.00;100323.56;7398555;19;20023;-66
2023/12/02 01:31:09;;;;;;;41.05;18.63;;;;;;;-5.65;100.00;100325.16;7397332;19;20023;-66
2023/12/02 01:33:38;;;;;;;41.78;18.83;;;;;;;-5.67;100.00;100323.31;7396980;19;20031;-67
2023/12/02 01:36:07;;;;;;;35.15;16.55;;;;;;;-5.73;100.00;100317.16;7395619;19;20023;-66
2023/12/02 01:38:35;;;;;;;30.60;16.73;;;;;;;-5.74;100.00;100328.22;7397487;19;20379;-66
2023/12/02 01:41:04;;;;;;;34.35;16.65;;;;;;;-5.76;100.00;100336.66;7397068;19;20011;-66
2023/12/02 01:43:32;;;;;;;34.33;16.55;;;;;;;-5.76;100.00;100349.44;7395465;19;20018;-67
2023/12/02 01:46:01;;;;;;;39.95;17.70;;;;;;;-5.77;100.00;100345.13;7395504;19;20034;-66
2023/12/02 01:48:34;;;;;;;26.52;13.52;;;;;;;-5.78;100.00;100362.13;7397195;19;20027;-66
2023/12/02 01:51:03;;;;;;;34.67;15.00;;;;;;;-5.81;100.00;100359.47;7396899;19;20360;-67
2023/12/02 01:53:32;;;;;;;25.05;13.75;;;;;;;-5.83;100.00;100362.78;7396164;19;20082;-67
2023/12/02 01:56:00;;;;;;;35.58;16.85;;;;;;;-5.90;100.00;100348.91;7396871;19;20014;-66
2023/12/02 01:58:29;;;;;;;54.47;15.30;;;;;;;-5.96;100.00;100348.66;7396937;19;20011;-65
2023/12/02 02:00:58;;;;;;;28.13;13.70;;;;;;;-6.02;100.00;100338.25;7396586;19;20023;-65
2023/12/02 02:03:26;;;;;;;33.38;15.48;;;;;;;-6.09;100.00;100345.66;7395019;19;20031;-66
2023/12/02 02:05:58;;;;;;;29.30;14.15;;;;;;;-6.13;100.00;100351.47;7396237;19;20537;-65
2023/12/02 02:08:26;;;;;;;33.88;15.77;;;;;;;-6.11;100.00;100349.81;7397034;19;20015;-65
2023/12/02 02:10:58;;;;;;;77.55;18.20;;;;;;;-6.13;100.00;100346.34;7396061;19;20380;-65
2023/12/02 02:13:27;;;;;;;40.97;16.42;;;;;;;-6.14;100.00;100356.50;7395954;19;20498;-65
2023/12/02 02:15:56;;;;;;;37.17;16.38;;;;;;;-6.17;100.00;100351.28;7396284;19;20006;-66
2023/12/02 02:18:24;;;;;;;36.00;16.27;;;;;;;-6.20;100.00;100352.03;7395763;19;20010;-66
2023/12/02 02:20:53;;;;;;;37.20;16.58;;;;;;;-6.24;100.00;100350.16;7396077;19;20075;-66
2023/12/02 02:23:25;;;;;;;39.00;15.55;;;;;;;-6.24;100.00;100345.06;7393803;19;20521;-66
2023/12/02 02:25:55;;;;;;;32.35;15.40;;;;;;;-6.25;100.00;100335.66;7395677;19;20027;-66
2023/12/02 02:28:24;;;;;;;37.88;16.10;;;;;;;-6.22;100.00;100338.31;7394226;19;20018;-65
2023/12/02 02:30:53;;;;;;;49.38;18.42;;;;;;;-6.24;100.00;100339.97;7395810;19;20013;-66
2023/12/02 02:33:22;;;;;;;37.72;15.85;;;;;;;-6.25;100.00;100330.53;7395096;19;20014;-66
2023/12/02 02:35:50;;;;;;;42.80;17.23;;;;;;;-6.27;100.00;100339.81;7393024;19;20481;-66
2023/12/02 02:38:19;;;;;;;35.65;15.82;;;;;;;-6.27;100.00;100334.72;7395298;19;20015;-66
2023/12/02 02:40:50;;;;;;;37.75;16.17;;;;;;;-6.25;100.00;100338.22;7393863;19;20015;-66
2023/12/02 02:43:18;;;;;;;43.63;16.77;;;;;;;-6.24;100.00;100343.38;7394504;19;20022;-66
2023/12/02 02:45:47;;;;;;;43.30;16.70;;;;;;;-6.24;100.00;100343.38;7395527;19;20014;-66
2023/12/02 02:48:15;;;;;;;38.67;16.92;;;;;;;-6.23;100.00;100344.22;7395027;19;20434;-66
2023/12/02 02:50:44;;;;;;;40.38;17.40;;;;;;;-6.22;100.00;100349.41;7394933;19;20014;-66
2023/12/02 02:53:12;;;;;;;39.53;16.75;;;;;;;-6.20;100.00;100349.47;7394730;19;20035;-66
2023/12/02 02:55:40;;;;;;;34.30;16.58;;;;;;;-6.17;100.00;100341.91;7395139;19;20343;-66
2023/12/02 02:58:12;;;;;;;39.17;17.50;;;;;;;-6.14;100.00;100341.16;7395105;19;20011;-66
2023/12/02 03:00:40;;;;;;;76.15;17.45;;;;;;;-6.14;100.00;100341.16;7395454;19;20010;-66
2023/12/02 03:03:08;;;;;;;43.15;17.90;;;;;;;-6.16;100.00;100345.38;7393281;19;20027;-66
2023/12/02 03:05:37;;;;;;;36.22;14.93;;;;;;;-6.19;100.00;100346.13;7394686;19;20048;-66
2023/12/02 03:08:06;;;;;;;39.67;16.98;;;;;;;-6.20;100.00;100356.25;7393032;19;20022;-66
2023/12/02 03:10:34;;;;;;;40.30;17.17;;;;;;;-6.19;100.00;100355.44;7394959;19;20031;-66
2023/12/02 03:13:02;;;;;;;42.90;17.73;;;;;;;-6.18;100.00;100346.97;7394211;19;20053;-66
2023/12/02 03:15:33;;;;;;;40.42;16.92;;;;;;;-6.16;100.00;100347.91;7394297;19;20074;-66
2023/12/02 03:18:02;;;;;;;47.20;17.73;;;;;;;-6.15;100.00;100349.66;7395043;19;20031;-66
2023/12/02 03:20:30;;;;;;;40.83;16.15;;;;;;;-6.10;100.00;100346.47;7394591;19;20015;-66
2023/12/02 03:22:59;;;;;;;43.95;17.23;;;;;;;-6.06;100.00;100348.31;7392710;19;20027;-65
2023/12/02 03:25:28;;;;;;;39.38;18.75;;;;;;;-6.04;100.00;100350.06;7394606;19;20033;-66
2023/12/02 03:27:56;;;;;;;49.78;18.42;;;;;;;-6.03;100.00;100356.94;7392442;19;20442;-65
2023/12/02 03:30:25;;;;;;;40.45;15.85;;;;;;;-6.06;100.00;100352.56;7394337;19;20014;-66
2023/12/02 03:32:56;;;;;;;41.33;18.20;;;;;;;-6.07;100.00;100350.81;7393788;19;20023;-66
2023/12/02 03:35:24;;;;;;;44.80;19.52;;;;;;;-6.08;100.00;100343.97;7395364;19;20014;-66
2023/12/02 03:37:52;;;;;;;38.22;17.10;;;;;;;-6.08;100.00;100342.28;7393668;19;20438;-66
2023/12/02 03:40:21;;;;;;;42.30;16.80;;;;;;;-6.06;100.00;100353.44;7393965;19;20010;-66
2023/12/02 03:42:49;;;;;;;37.58;17.17;;;;;;;-6.02;100.00;100354.41;7392555;19;20446;-66
2023/12/02 03:45:18;;;;;;;41.97;17.73;;;;;;;-6.02;100.00;100354.41;7393883;19;20018;-66
2023/12/02 03:47:47;;;;;;;43.47;19.85;;;;;;;-6.01;100.00;100350.19;7395527;19;20074;-66
2023/12/02 03:50:18;;;;;;;45.75;19.67;;;;;;;-6.00;100.00;100346.81;7401077;19;20017;-66
2023/12/02 03:52:46;;;;;;;39.63;17.27;;;;;;;-6.00;100.00;100357.91;7401049;19;20015;-66
2023/12/02 03:55:15;;;;;;;37.50;17.02;;;;;;;-5.99;100.00;100352.00;7400585;19;20074;-67
2023/12/02 03:57:44;;;;;;;42.08;16.60;;;;;;;-5.95;100.00;100347.81;7400341;19;20509;-66
2023/12/02 04:00:13;;;;;;;42.95;17.52;;;;;;;-5.95;100.00;100350.38;7400725;19;20375;-66
2023/12/02 04:02:42;;;;;;;39.13;17.67;;;;;;;-5.96;100.00;100343.56;7399682;19;20025;-66
2023/12/02 04:05:13;;;;;;;41.75;17.60;;;;;;;-5.93;100.00;100333.44;7400524;19;20024;-66
2023/12/02 04:07:44;;;;;;;40.03;17.05;;;;;;;-5.92;100.00;100341.16;7400049;19;20477;-66
2023/12/02 04:10:13;;;;;;;40.85;18.80;;;;;;;-5.90;100.00;100349.75;7397471;19;20365;-66
2023/12/02 04:12:41;;;;;;;37.38;18.30;;;;;;;-5.89;100.00;100335.28;7399567;19;20015;-66
2023/12/02 04:15:11;;;;;;;47.83;17.50;;;;;;;-5.93;100.00;100333.44;7400350;19;20018;-66
2023/12/02 04:17:39;;;;;;;38.78;15.13;;;;;;;-5.97;100.00;100321.38;7399700;19;20019;-66
2023/12/02 04:20:14;;;;;;;41.35;17.55;;;;;;;-6.00;100.00;100321.25;7399998;19;20015;-66
2023/12/02 04:22:45;;;;;;;38.45;17.48;;;;;;;-6.02;100.00;100317.81;7399571;19;20062;-66
2023/12/02 04:25:14;;;;;;;45.22;17.35;;;;;;;-6.06;100.00;100317.66;7397576;19;20078;-66
2023/12/02 04:27:43;;;;;;;37.60;17.05;;;;;;;-6.07;100.00;100321.03;7399857;19;20427;-66
2023/12/02 04:30:11;;;;;;;38.58;15.95;;;;;;;-6.13;100.00;100327.59;7399807;19;20018;-66
2023/12/02 04:32:40;;;;;;;39.08;16.27;;;;;;;-6.19;100.00;100328.22;7399080;19;20007;-66
2023/12/02 04:35:10;;;;;;;38.70;17.08;;;;;;;-6.22;100.00;100330.66;7399167;19;20074;-66
2023/12/02 04:37:38;;;;;;;37.53;15.93;;;;;;;-6.25;100.00;100336.50;7397246;19;20018;-66
2023/12/02 04:40:12;;;;;;;36.25;16.60;;;;;;;-6.25;100.00;100338.22;7399070;19;20014;-66
2023/12/02 04:42:41;;;;;;;40.65;18.05;;;;;;;-6.24;100.00;100342.50;7399350;19;20357;-66
2023/12/02 04:45:11;;;;;;;60.97;24.52;;;;;;;-6.24;100.00;100348.47;7399241;19;20357;-66
2023/12/02 04:47:39;;;;;;;48.53;20.33;;;;;;;-6.18;100.00;100352.94;7399199;19;20006;-66
2023/12/02 04:50:09;;;;;;;43.95;19.45;;;;;;;-6.14;100.00;100357.38;7399121;19;20028;-66
2023/12/02 04:52:37;;;;;;;41.38;17.23;;;;;;;-6.11;100.00;100365.16;7398619;19;20018;-66
2023/12/02 04:55:07;;;;;;;38.25;16.30;;;;;;;-6.09;100.00;100371.19;7398965;19;20082;-66
2023/12/02 04:57:38;;;;;;;39.10;15.63;;;;;;;-6.08;100.00;100380.63;7398397;19;20477;-66
2023/12/02 05:00:13;;;;;;;39.30;17.65;;;;;;;-6.07;100.00;100384.03;7397178;19;20015;-66
2023/12/02 05:02:42;;;;;;;39.35;16.67;;;;;;;-6.09;100.00;100377.97;7396391;19;20015;-66
2023/12/02 05:05:12;;;;;;;41.28;16.17;;;;;;;-6.11;100.00;100375.38;7398575;19;20102;-66
2023/12/02 05:07:40;;;;;;;36.53;16.25;;;;;;;-6.12;100.00;100377.88;7398531;19;20018;-66
2023/12/02 05:10:10;;;;;;;41.88;17.58;;;;;;;-6.15;100.00;100373.50;7398387;19;20086;-66
2023/12/02 05:12:41;;;;;;;43.33;18.10;;;;;;;-6.16;100.00;100371.75;7397995;19;20017;-66
2023/12/02 05:15:10;;;;;;;40.30;16.38;;;;;;;-6.16;100.00;100376.88;7398701;19;20411;-65
2023/12/02 05:17:39;;;;;;;41.40;18.80;;;;;;;-6.16;100.00;100379.41;7397797;19;20417;-66
2023/12/02 05:20:10;;;;;;;39.45;16.88;;;;;;;-6.17;100.00;100387.88;7396059;19;20078;-66
2023/12/02 05:22:39;;;;;;;41.15;18.13;;;;;;;-6.17;100.00;100395.53;7397274;19;20010;-66
2023/12/02 05:25:08;;;;;;;44.05;17.02;;;;;;;-6.18;100.00;100401.47;7396123;19;20025;-66
2023/12/02 05:27:37;;;;;;;32.65;16.80;;;;;;;-6.17;100.00;100413.41;7397457;19;20006;-66
2023/12/02 05:30:12;;;;;;;33.38;15.10;;;;;;;-6.19;100.00;100419.28;7395970;19;20027;-66
2023/12/02 05:32:41;;;;;;;29.17;14.40;;;;;;;-6.27;100.00;100413.88;7396227;19;20361;-66
2023/12/02 05:35:13;;;;;;;27.30;13.45;;;;;;;-6.31;100.00;100412.88;7397792;19;20018;-66
2023/12/02 05:37:42;;;;;;;26.50;14.18;;;;;;;-6.38;100.00;100411.75;7398128;19;20090;-66
2023/12/02 05:40:12;;;;;;;29.60;14.13;;;;;;;-6.39;100.00;100416.78;7397383;19;20014;-66
2023/12/02 05:42:41;;;;;;;24.38;12.10;;;;;;;-6.42;100.00;100409.88;7396971;19;20014;-66
2023/12/02 05:45:18;;;;;;;29.67;14.70;;;;;;;-6.42;100.00;100403.88;7395126;19;20074;-66
2023/12/02 05:47:47;;;;;;;46.63;22.98;;;;;;;-6.43;100.00;100404.69;7397709;19;20074;-66
2023/12/02 05:50:15;;;;;;;34.15;14.95;;;;;;;-6.39;100.00;100404.88;7397211;19;20078;-66
2023/12/02 05:52:45;;;;;;;33.00;14.95;;;;;;;-6.35;100.00;100399.94;7396731;19;20027;-66
2023/12/02 05:55:13;;;;;;;33.13;15.95;;;;;;;-6.38;100.00;100408.34;7395177;19;20018;-66
2023/12/02 05:57:42;;;;;;;30.77;15.30;;;;;;;-6.42;100.00;100404.78;7396948;19;20068;-66
2023/12/02 06:00:11;;;;;;;34.03;15.35;;;;;;;-6.42;100.00;100409.00;7394675;19;20086;-66
2023/12/02 06:02:42;;;;;;;36.70;15.40;;;;;;;-6.44;100.00;100402.97;7396594;19;20090;-67
2023/12/02 06:05:11;;;;;;;33.80;15.10;;;;;;;-6.48;100.00;100407.06;7394587;19;20540;-66
2023/12/02 06:07:40;;;;;;;37.25;16.15;;;;;;;-6.56;100.00;100401.66;7396849;19;20070;-66
2023/12/02 06:10:11;;;;;;;33.97;15.60;;;;;;;-6.60;100.00;100404.00;7396133;19;20081;-66
2023/12/02 06:12:40;;;;;;;33.45;14.73;;;;;;;-6.66;100.00;100408.84;7394302;19;20040;-67
2023/12/02 06:15:10;;;;;;;34.65;15.52;;;;;;;-6.72;100.00;100405.22;7394280;19;20423;-66
2023/12/02 06:17:39;;;;;;;37.70;15.68;;;;;;;-6.72;100.00;100402.66;7396711;19;20017;-66
2023/12/02 06:20:11;;;;;;;32.63;14.77;;;;;;;-6.70;100.00;100402.72;7396262;19;20027;-67
2023/12/02 06:22:40;;;;;;;35.90;17.00;;;;;;;-6.68;100.00;100403.69;7395976;19;20102;-67
2023/12/02 06:25:09;;;;;;;37.05;15.93;;;;;;;-6.67;100.00;100404.53;7394164;19;20014;-67
2023/12/02 06:27:38;;;;;;;36.35;17.35;;;;;;;-6.68;100.00;100410.44;7395855;19;20074;-66
2023/12/02 06:30:07;;;;;;;37.97;16.40;;;;;;;-6.73;100.00;100415.38;7395884;19;20014;-66
2023/12/02 06:32:36;;;;;;;35.20;15.93;;;;;;;-6.74;100.00;100422.13;7395612;19;20007;-65
2023/12/02 06:35:04;;;;;;;33.25;15.80;;;;;;;-6.77;100.00;100416.91;7395667;19;20079;-65
2023/12/02 06:37:36;;;;;;;35.15;15.63;;;;;;;-6.77;100.00;100419.47;7395628;19;20014;-66
2023/12/02 06:40:04;;;;;;;34.60;15.98;;;;;;;-6.80;100.00;100416.75;7395275;19;20432;-65
2023/12/02 06:42:32;;;;;;;33.72;16.20;;;;;;;-6.84;100.00;100420.00;7395512;19;20022;-65
2023/12/02 06:45:02;;;;;;;36.22;17.20;;;;;;;-6.82;100.00;100427.72;7393559;19;20007;-65
2023/12/02 06:47:30;;;;;;;36.95;16.10;;;;;;;-6.81;100.00;100421.81;7395229;19;20018;-65
2023/12/02 06:49:59;;;;;;;35.75;16.27;;;;;;;-6.78;100.00;100421.97;7395202;19;20017;-66
2023/12/02 06:52:28;;;;;;;37.42;14.95;;;;;;;-6.77;100.00;100431.38;7395271;19;20086;-65
2023/12/02 06:54:59;;;;;;;37.75;15.93;;;;;;;-6.76;100.00;100439.06;7394698;19;20082;-65
2023/12/02 06:57:27;;;;;;;34.30;15.82;;;;;;;-6.74;100.00;100440.00;7395242;19;20028;-65
2023/12/02 06:59:56;;;;;;;37.50;17.75;;;;;;;-6.72;100.00;100445.19;7394986;19;20083;-66
2023/12/02 07:02:24;;;;;;;36.60;15.52;;;;;;;-6.72;100.00;100451.16;7394997;19;20083;-66
2023/12/02 07:04:52;;;;;;;32.42;14.32;;;;;;;-6.72;100.00;100443.50;7392569;19;20502;-66
2023/12/02 07:07:21;;;;;;;32.47;14.63;;;;;;;-6.73;100.00;100449.41;7394919;19;20031;-66
2023/12/02 07:09:49;;;;;;;26.67;13.30;;;;;;;-6.71;100.00;100452.00;7394798;19;20014;-66
2023/12/02 07:12:20;;;;;;;28.10;12.65;;;;;;;-6.69;100.00;100457.19;7394366;19;20098;-66
2023/12/02 07:14:49;;;;;;;30.50;13.85;;;;;;;-6.68;100.00;100464.03;7392653;19;20145;-65
2023/12/02 07:17:23;;;;;;;31.90;14.40;;;;;;;-6.69;100.00;100475.06;7394501;19;20023;-65
2023/12/02 07:19:52;;;;;;;31.40;13.45;;;;;;;-6.69;100.00;100464.84;7394875;19;20019;-65
2023/12/02 07:22:20;;;;;;;31.65;14.65;;;;;;;-6.71;100.00;100469.88;7397215;19;20083;-67
2023/12/02 07:24:48;;;;;;;31.50;15.35;;;;;;;-6.68;100.00;100472.56;7398326;19;20510;-66
2023/12/02 07:27:19;;;;;;;32.40;15.32;;;;;;;-6.73;100.00;100469.81;7401463;19;20425;-66
2023/12/02 07:29:48;;;;;;;29.25;13.43;;;;;;;-6.75;100.00;100471.44;7402044;19;20086;-66
2023/12/02 07:32:16;;;;;;;25.27;12.38;;;;;;;-6.76;100.00;100474.78;7401791;19;20090;-66
2023/12/02 07:34:45;;;;;;;22.50;11.05;;;;;;;-6.81;100.00;100490.69;7398890;19;20011;-66
2023/12/02 07:37:13;;;;;;;21.42;11.38;;;;;;;-6.83;100.00;100494.88;7401110;19;20099;-66
2023/12/02 07:39:42;;;;;;;22.02;10.70;;;;;;;-6.81;100.00;100495.78;7401186;19;20510;-66
2023/12/02 07:42:10;;;;;;;22.88;11.65;;;;;;;-6.80;100.00;100492.44;7401258;19;20078;-67
2023/12/02 07:44:41;;;;;;;26.92;12.65;;;;;;;-6.77;100.00;100500.25;7398601;19;20018;-66
2023/12/02 07:47:10;;;;;;;20.98;11.73;;;;;;;-6.73;100.00;100508.09;7401715;19;20085;-66
2023/12/02 07:49:38;;;;;;;22.67;11.00;;;;;;;-6.68;100.00;100507.41;7398291;19;20078;-66
2023/12/02 07:52:07;;;;;;;21.92;11.23;;;;;;;-6.64;100.00;100509.31;7400548;19;20082;-65
2023/12/02 07:54:36;;;;;;;23.75;10.52;;;;;;;-6.61;100.00;100511.97;7398086;19;20164;-65
2023/12/02 07:57:05;;;;;;;21.25;10.93;;;;;;;-6.59;100.00;100513.78;7400516;19;20371;-65
2023/12/02 07:59:33;;;;;;;20.70;10.60;;;;;;;-6.56;100.00;100519.06;7400165;19;20010;-66
2023/12/02 08:02:04;;;;;;;24.10;12.80;;;;;;;-6.54;100.00;100519.13;7400241;19;20430;-66
2023/12/02 08:04:33;;;;;;;21.10;11.82;;;;;;;-6.52;100.00;100514.97;7398163;19;20019;-66
2023/12/02 08:07:01;;;;;;;23.60;11.65;;;;;;;-6.50;100.00;100505.66;7400032;19;20066;-66
2023/12/02 08:09:30;;;;;;;24.15;11.70;;;;;;;-6.49;100.00;100504.88;7400123;19;20086;-66
2023/12/02 08:11:58;;;;;;;22.30;10.52;;;;;;;-6.47;100.00;100502.38;7398039;19;20082;-66
2023/12/02 08:14:26;;;;;;;24.45;12.68;;;;;;;-6.46;100.00;100505.00;7397711;19;20417;-66
2023/12/02 08:16:55;;;;;;;23.17;12.20;;;;;;;-6.46;100.00;100506.69;7400061;19;20070;-66
2023/12/02 08:19:26;;;;;;;22.00;11.60;;;;;;;-6.44;100.00;100505.06;7399882;19;20373;-66
2023/12/02 08:21:54;;;;;;;22.70;11.65;;;;;;;-6.41;100.00;100512.84;7396880;19;20006;-65
2023/12/02 08:24:23;;;;;;;28.23;13.55;;;;;;;-6.41;100.00;100516.31;7396944;19;20509;-66
2023/12/02 08:26:51;;;;;;;25.33;13.23;;;;;;;-6.46;100.00;100522.84;7399347;19;20350;-66
2023/12/02 08:29:20;;;;;;;19.98;11.05;;;;;;;-6.47;100.00;100517.69;7399729;19;20066;-67
2023/12/02 08:31:48;;;;;;;24.92;12.45;;;;;;;-6.47;100.00;100516.03;7399847;19;20028;-66
2023/12/02 08:34:17;;;;;;;23.45;12.90;;;;;;;-6.43;100.00;100520.47;7394080;19;20023;-68
2023/12/02 08:36:48;;;;;;;24.35;12.98;;;;;;;-6.45;100.00;100514.41;7399515;19;20082;-67
2023/12/02 08:39:16;;;;;;;23.48;11.48;;;;;;;-6.40;100.00;100525.69;7399050;19;20542;-67
2023/12/02 08:41:45;;;;;;;22.80;11.38;;;;;;;-6.32;100.00;100522.59;7399209;19;20433;-67
2023/12/02 08:44:13;;;;;;;20.95;11.27;;;;;;;-6.27;100.00;100528.78;7397322;19;20087;-67
2023/12/02 08:46:41;;;;;;;24.52;12.95;;;;;;;-6.25;100.00;100527.16;7398843;19;20421;-67
2023/12/02 08:49:10;;;;;;;22.80;12.50;;;;;;;-6.24;100.00;100522.13;7398420;19;20091;-67
2023/12/02 08:51:39;;;;;;;25.60;13.02;;;;;;;-6.21;100.00;100521.38;7398416;19;20395;-67
2023/12/02 08:54:10;;;;;;;24.40;13.15;;;;;;;-6.16;100.00;100519.03;7397019;19;20485;-67
2023/12/02 08:56:38;;;;;;;22.92;13.13;;;;;;;-6.08;100.00;100515.09;7399173;19;20082;-67
2023/12/02 08:59:07;;;;;;;22.70;12.45;;;;;;;-6.01;100.00;100522.22;7398374;19;20074;-67
2023/12/02 09:01:36;;;;;;;18.75;10.90;;;;;;;-5.95;100.00;100519.00;7398051;19;20010;-67
2023/12/02 09:04:06;;;;;;;23.77;12.60;;;;;;;-5.95;100.00;100524.09;7397075;19;20014;-67
2023/12/02 09:06:37;;;;;;;22.85;12.70;;;;;;;-5.94;100.00;100533.53;7396355;19;20007;-67
2023/12/02 09:09:05;;;;;;;23.63;11.88;;;;;;;-5.93;100.00;100530.16;7398056;19;20031;-67
2023/12/02 09:11:36;;;;;;;23.10;12.00;;;;;;;-5.90;100.00;100532.84;7398109;19;20522;-67
2023/12/02 09:14:05;;;;;;;26.63;12.05;;;;;;;-5.90;100.00;100525.19;7397010;19;20021;-67
2023/12/02 09:16:33;;;;;;;26.48;13.48;;;;;;;-5.89;100.00;100524.34;7397689;19;20494;-67
2023/12/02 09:19:02;;;;;;;20.48;11.77;;;;;;;-5.87;100.00;100516.78;7397921;19;20023;-67
2023/12/02 09:21:45;;;;;;;22.25;11.57;;;;;;;-5.82;100.00;100520.41;7397919;19;20035;-67
2023/12/02 09:24:40;;;;;;;27.98;15.40;;;;;;;-5.75;100.00;100525.81;7395500;19;20017;-67
2023/12/02 09:27:12;;;;;;;23.83;14.25;;;;;;;-5.66;100.00;100516.75;7397779;19;20480;-67
2023/12/02 09:29:42;;;;;;;23.17;13.13;;;;;;;-5.59;100.00;100529.00;7397029;19;20015;-67
2023/12/02 09:32:32;;;;;;;20.60;11.25;;;;;;;-5.52;100.00;100530.09;7398808;19;20017;-67
2023/12/02 09:35:03;;;;;;;20.63;11.15;;;;;;;-5.47;100.00;100532.03;7397516;19;20081;-65
2023/12/02 09:37:56;;;;;;;22.17;10.90;;;;;;;-5.41;100.00;100542.50;7398232;19;20073;-65
2023/12/02 09:40:40;;;;;;;20.10;10.93;;;;;;;-5.35;100.00;100546.13;7396993;19;20014;-69
2023/12/02 09:43:24;;;;;;;18.55;10.65;;;;;;;-5.31;100.00;100543.72;7394808;19;20018;-65
2023/12/02 09:46:04;;;;;;;19.52;10.52;;;;;;;-5.26;100.00;100544.81;7394196;19;20477;-65
2023/12/02 09:48:41;;;;;;;18.70;10.70;;;;;;;-5.21;100.00;100541.53;7397421;19;20094;-65
2023/12/02 09:51:22;;;;;;;22.58;11.30;;;;;;;-5.17;100.00;100539.16;7397331;19;20066;-66
2023/12/02 09:54:00;;;;;;;22.45;10.98;;;;;;;-5.16;100.00;100538.34;7396072;19;20031;-66
2023/12/02 09:56:33;;;;;;;25.00;12.93;;;;;;;-5.11;100.00;100534.28;7396334;19;20502;-65
2023/12/02 09:59:11;;;;;;;18.63;10.65;;;;;;;-5.05;100.00;100538.75;7397125;19;20090;-66
2023/12/02 10:01:45;;;;;;;19.27;11.65;;;;;;;-5.08;99.10;100542.09;7395275;19;20070;-66
2023/12/02 10:04:26;;;;;;;22.50;12.32;;;;;;;-5.10;99.59;100533.47;7394929;19;20613;-65
2023/12/02 10:07:03;;;;;;;19.95;11.52;;;;;;;-5.07;100.00;100531.03;7396736;19;20018;-65
2023/12/02 10:09:45;;;;;;;22.63;12.05;;;;;;;-5.00;100.00;100538.94;7396118;19;20074;-67
2023/12/02 10:12:29;;;;;;;21.75;12.10;;;;;;;-4.93;100.00;100538.34;7396482;19;20071;-67
2023/12/02 10:15:05;;;;;;;20.60;11.63;;;;;;;-4.85;100.00;100538.63;7395690;19;20365;-66
2023/12/02 10:17:40;;;;;;;21.15;12.20;;;;;;;-4.77;100.00;100535.53;7395854;19;20010;-66
2023/12/02 10:20:12;;;;;;;23.65;12.70;;;;;;;-4.70;100.00;100525.53;7395975;19;20031;-66
2023/12/02 10:22:46;;;;;;;20.15;12.07;;;;;;;-4.62;100.00;100524.16;7396186;19;20016;-64
2023/12/02 10:25:29;;;;;;;23.97;13.63;;;;;;;-4.57;100.00;100527.75;7394555;19;20015;-66
2023/12/02 10:28:04;;;;;;;21.10;11.45;;;;;;;-4.49;100.00;100526.31;7395645;19;20358;-66
2023/12/02 10:30:41;;;;;;;23.52;12.23;;;;;;;-4.42;100.00;100535.09;7396397;19;20035;-65
2023/12/02 10:33:18;;;;;;;24.88;12.85;;;;;;;-4.35;100.00;100533.63;7395713;19;20062;-65
2023/12/02 10:35:49;;;;;;;26.55;12.75;;;;;;;-4.30;100.00;100524.41;7395491;19;20424;-64
2023/12/02 10:38:24;;;;;;;24.23;13.27;;;;;;;-4.30;99.95;100517.59;7393804;19;20070;-64
2023/12/02 10:41:04;;;;;;;24.70;13.48;;;;;;;-4.25;99.41;100520.31;7395248;19;20580;-65
2023/12/02 10:43:40;;;;;;;20.77;11.45;;;;;;;-4.29;98.70;100509.09;7395007;19;20025;-64
2023/12/02 10:46:11;;;;;;;24.08;13.07;;;;;;;-4.29;99.60;100508.22;7393361;19;20537;-63
2023/12/02 10:48:41;;;;;;;22.77;13.00;;;;;;;-4.29;99.02;100508.22;7394937;19;20078;-62
2023/12/02 10:51:13;;;;;;;21.40;12.85;;;;;;;-4.26;99.84;100505.75;7395452;19;20074;-63
2023/12/02 10:53:45;;;;;;;21.92;12.82;;;;;;;-4.23;99.75;100513.56;7393357;19;20074;-65
2023/12/02 10:56:21;;;;;;;27.67;14.65;;;;;;;-4.18;99.38;100506.03;7393885;19;20077;-60
2023/12/02 10:58:51;;;;;;;37.50;19.48;;;;;;;-4.12;100.00;100491.75;7399478;19;20491;-61
2023/12/02 11:01:29;;;;;;;27.58;15.05;;;;;;;-4.03;100.00;100491.19;7403518;19;20090;-61
2023/12/02 11:04:04;;;;;;;27.90;13.85;;;;;;;-3.96;100.00;100487.13;7399288;19;20018;-61
2023/12/02 11:06:35;;;;;;;27.73;13.82;;;;;;;-3.88;100.00;100489.94;7399600;19;20488;-60
2023/12/02 11:09:10;;;;;;;24.42;14.30;;;;;;;-3.81;100.00;100490.19;7401945;19;20024;-62
2023/12/02 11:11:49;;;;;;;23.77;13.57;;;;;;;-3.77;99.85;100493.72;7399017;19;20015;-62
2023/12/02 11:14:20;;;;;;;28.33;15.32;;;;;;;-3.77;99.36;100488.59;7400670;19;20011;-62
2023/12/02 11:17:06;;;;;;;25.77;15.18;;;;;;;-3.73;100.00;100484.44;7402373;19;20070;-62